sensor_id;sensor_type;location;lat;lon;timestamp;pressure;altitude;pressure_sealevel;temperature;humidity
69187;BME280;56301;56.864;60.554;2023-04-27T00:01:18;98058.38;;;24.94;33.17
69187;BME280;56301;56.864;60.554;2023-04-27T00:03:41;98062.13;;;24.93;32.73
69187;BME280;56301;56.864;60.554;2023-04-27T00:06:03;98060.25;;;24.93;33.12
69187;BME280;56301;56.864;60.554;2023-04-27T00:08:26;98063.78;;;24.94;32.94
69187;BME280;56301;56.864;60.554;2023-04-27T00:10:48;98069.19;;;24.94;32.99
69187;BME280;56301;56.864;60.554;2023-04-27T00:13:10;98067.31;;;24.94;32.45
69187;BME280;56301;56.864;60.554;2023-04-27T00:15:33;98066.50;;;24.94;32.74
69187;BME280;56301;56.864;60.554;2023-04-27T00:17:55;98069.19;;;24.94;32.82
69187;BME280;56301;56.864;60.554;2023-04-27T00:20:18;98063.78;;;24.94;32.25
69187;BME280;56301;56.864;60.554;2023-04-27T00:22:40;98072.75;;;24.94;32.70
69187;BME280;56301;56.864;60.554;2023-04-27T00:25:03;98075.44;;;24.94;33.21
69187;BME280;56301;56.864;60.554;2023-04-27T00:27:25;98065.66;;;24.93;33.02
69187;BME280;56301;56.864;60.554;2023-04-27T00:29:48;98071.91;;;24.94;32.89
69187;BME280;56301;56.864;60.554;2023-04-27T00:32:10;98068.38;;;24.93;33.27
69187;BME280;56301;56.864;60.554;2023-04-27T00:34:33;98054.00;;;24.93;33.14
69187;BME280;56301;56.864;60.554;2023-04-27T00:36:56;98065.88;;;24.92;33.47
69187;BME280;56301;56.864;60.554;2023-04-27T00:39:18;98053.19;;;24.92;33.62
69187;BME280;56301;56.864;60.554;2023-04-27T00:41:41;98053.19;;;24.92;33.24
69187;BME280;56301;56.864;60.554;2023-04-27T00:44:03;98059.44;;;24.93;33.42
69187;BME280;56301;56.864;60.554;2023-04-27T00:46:26;98057.75;;;24.92;33.49
69187;BME280;56301;56.864;60.554;2023-04-27T00:48:50;98062.13;;;24.93;33.47
69187;BME280;56301;56.864;60.554;2023-04-27T00:51:13;98064.84;;;24.93;33.46
69187;BME280;56301;56.864;60.554;2023-04-27T00:53:35;98057.75;;;24.92;33.43
69187;BME280;56301;56.864;60.554;2023-04-27T00:55:58;98059.63;;;24.91;33.50
69187;BME280;56301;56.864;60.554;2023-04-27T00:58:20;98064.00;;;24.92;33.54
69187;BME280;56301;56.864;60.554;2023-04-27T01:00:43;98057.75;;;24.92;33.94
69187;BME280;56301;56.864;60.554;2023-04-27T01:03:06;98057.75;;;24.92;33.53
69187;BME280;56301;56.864;60.554;2023-04-27T01:05:29;98052.34;;;24.92;33.97
69187;BME280;56301;56.864;60.554;2023-04-27T01:07:51;98052.34;;;24.92;34.28
69187;BME280;56301;56.864;60.554;2023-04-27T01:10:15;98050.66;;;24.91;34.63
69187;BME280;56301;56.864;60.554;2023-04-27T01:12:38;98056.94;;;24.91;34.36
69187;BME280;56301;56.864;60.554;2023-04-27T01:15:01;98052.34;;;24.92;33.93
69187;BME280;56301;56.864;60.554;2023-04-27T01:17:23;98052.34;;;24.92;34.72
69187;BME280;56301;56.864;60.554;2023-04-27T01:19:46;98055.06;;;24.92;33.76
69187;BME280;56301;56.864;60.554;2023-04-27T01:22:08;98052.97;;;24.94;33.83
69187;BME280;56301;56.864;60.554;2023-04-27T01:24:31;98050.69;;;24.97;33.46
69187;BME280;56301;56.864;60.554;2023-04-27T01:26:53;98056.94;;;24.98;33.94
69187;BME280;56301;56.864;60.554;2023-04-27T01:29:16;98053.22;;;24.99;34.62
69187;BME280;56301;56.864;60.554;2023-04-27T01:31:38;98054.03;;;25.00;34.39
69187;BME280;56301;56.864;60.554;2023-04-27T01:34:00;98054.88;;;25.00;33.89
69187;BME280;56301;56.864;60.554;2023-04-27T01:36:23;98055.69;;;25.01;34.59
69187;BME280;56301;56.864;60.554;2023-04-27T01:38:45;98051.13;;;25.01;33.93
69187;BME280;56301;56.864;60.554;2023-04-27T01:41:08;98056.53;;;25.01;34.45
69187;BME280;56301;56.864;60.554;2023-04-27T01:43:31;98061.94;;;25.01;35.00
69187;BME280;56301;56.864;60.554;2023-04-27T01:45:53;98058.22;;;25.02;34.69
69187;BME280;56301;56.864;60.554;2023-04-27T01:48:17;98069.88;;;25.03;34.92
69187;BME280;56301;56.864;60.554;2023-04-27T01:50:39;98063.63;;;25.02;34.88
69187;BME280;56301;56.864;60.554;2023-04-27T01:53:02;98065.31;;;25.03;34.83
69187;BME280;56301;56.864;60.554;2023-04-27T01:55:24;98069.66;;;25.04;34.67
69187;BME280;56301;56.864;60.554;2023-04-27T01:57:47;98066.97;;;25.04;34.61
69187;BME280;56301;56.864;60.554;2023-04-27T02:00:09;98067.78;;;25.05;34.87
69187;BME280;56301;56.864;60.554;2023-04-27T02:02:44;98071.31;;;25.05;34.82
69187;BME280;56301;56.864;60.554;2023-04-27T02:05:07;98069.47;;;25.06;34.97
69187;BME280;56301;56.864;60.554;2023-04-27T02:07:29;98064.91;;;25.06;34.87
69187;BME280;56301;56.864;60.554;2023-04-27T02:09:52;98065.72;;;25.07;34.98
69187;BME280;56301;56.864;60.554;2023-04-27T02:12:14;98066.56;;;25.07;34.78
69187;BME280;56301;56.864;60.554;2023-04-27T02:14:36;98059.25;;;25.08;34.87
69187;BME280;56301;56.864;60.554;2023-04-27T02:16:59;98072.81;;;25.08;34.65
69187;BME280;56301;56.864;60.554;2023-04-27T02:19:22;98068.22;;;25.08;35.07
69187;BME280;56301;56.864;60.554;2023-04-27T02:21:44;98058.22;;;25.09;34.66
69187;BME280;56301;56.864;60.554;2023-04-27T02:24:08;98056.56;;;25.08;34.92
69187;BME280;56301;56.864;60.554;2023-04-27T02:26:30;98062.38;;;25.05;35.03
69187;BME280;56301;56.864;60.554;2023-04-27T02:28:54;98062.38;;;25.05;35.47
69187;BME280;56301;56.864;60.554;2023-04-27T02:31:16;98060.72;;;25.04;34.61
69187;BME280;56301;56.864;60.554;2023-04-27T02:33:39;98058.22;;;25.02;35.32
69187;BME280;56301;56.864;60.554;2023-04-27T02:36:02;98059.06;;;25.03;36.02
69187;BME280;56301;56.864;60.554;2023-04-27T02:38:24;98056.53;;;25.01;35.48
69187;BME280;56301;56.864;60.554;2023-04-27T02:40:51;98061.13;;;25.01;35.69
69187;BME280;56301;56.864;60.554;2023-04-27T02:43:14;98060.28;;;25.00;35.76
69187;BME280;56301;56.864;60.554;2023-04-27T02:45:37;98064.03;;;24.99;35.91
69187;BME280;56301;56.864;60.554;2023-04-27T02:48:01;98058.63;;;24.99;36.53
69187;BME280;56301;56.864;60.554;2023-04-27T02:50:23;98064.03;;;24.99;36.16
69187;BME280;56301;56.864;60.554;2023-04-27T02:52:46;98066.94;;;24.97;36.12
69187;BME280;56301;56.864;60.554;2023-04-27T02:55:08;98057.97;;;24.97;36.37
69187;BME280;56301;56.864;60.554;2023-04-27T02:57:31;98055.28;;;24.97;36.66
69187;BME280;56301;56.864;60.554;2023-04-27T02:59:55;98056.31;;;24.96;35.98
69187;BME280;56301;56.864;60.554;2023-04-27T03:02:17;98049.25;;;24.95;35.45
69187;BME280;56301;56.864;60.554;2023-04-27T03:04:40;98057.97;;;24.97;35.45
69187;BME280;56301;56.864;60.554;2023-04-27T03:07:02;98059.63;;;24.98;35.47
69187;BME280;56301;56.864;60.554;2023-04-27T03:09:26;98062.34;;;24.98;35.64
69187;BME280;56301;56.864;60.554;2023-04-27T03:11:48;98067.75;;;24.98;35.35
69187;BME280;56301;56.864;60.554;2023-04-27T03:14:10;98062.34;;;24.98;35.42
69187;BME280;56301;56.864;60.554;2023-04-27T03:16:33;98063.22;;;24.98;35.54
69187;BME280;56301;56.864;60.554;2023-04-27T03:18:55;98062.34;;;24.98;35.17
69187;BME280;56301;56.864;60.554;2023-04-27T03:21:19;98068.63;;;24.98;35.35
69187;BME280;56301;56.864;60.554;2023-04-27T03:23:44;98076.53;;;25.00;35.53
69187;BME280;56301;56.864;60.554;2023-04-27T03:26:10;98076.53;;;25.00;35.16
69187;BME280;56301;56.864;60.554;2023-04-27T03:28:33;98079.00;;;25.02;34.86
69187;BME280;56301;56.864;60.554;2023-04-27T03:30:55;98075.47;;;25.01;35.16
69187;BME280;56301;56.864;60.554;2023-04-27T03:33:18;98070.72;;;25.03;34.87
69187;BME280;56301;56.864;60.554;2023-04-27T03:35:40;98066.97;;;25.04;35.61
69187;BME280;56301;56.864;60.554;2023-04-27T03:38:03;98064.25;;;25.04;35.65
69187;BME280;56301;56.864;60.554;2023-04-27T03:40:27;98068.63;;;25.05;36.04
69187;BME280;56301;56.864;60.554;2023-04-27T03:42:50;98066.56;;;25.07;35.65
69187;BME280;56301;56.864;60.554;2023-04-27T03:45:12;98069.03;;;25.09;36.25
69187;BME280;56301;56.864;60.554;2023-04-27T03:47:35;98062.63;;;25.10;35.82
69187;BME280;56301;56.864;60.554;2023-04-27T03:49:57;98070.38;;;25.13;36.07
69187;BME280;56301;56.864;60.554;2023-04-27T03:52:20;98058.50;;;25.14;35.62
69187;BME280;56301;56.864;60.554;2023-04-27T03:54:42;98059.31;;;25.14;35.43
69187;BME280;56301;56.864;60.554;2023-04-27T03:57:05;98059.34;;;25.21;35.23
69187;BME280;56301;56.864;60.554;2023-04-27T03:59:28;98058.31;;;25.22;35.62
69187;BME280;56301;56.864;60.554;2023-04-27T04:01:50;98065.78;;;25.20;34.48
69187;BME280;56301;56.864;60.554;2023-04-27T04:04:12;98069.09;;;25.15;34.84
69187;BME280;56301;56.864;60.554;2023-04-27T04:06:35;98054.13;;;25.19;35.09
69187;BME280;56301;56.864;60.554;2023-04-27T04:08:57;98060.81;;;25.17;35.44
69187;BME280;56301;56.864;60.554;2023-04-27T04:11:20;98056.00;;;25.19;34.46
69187;BME280;56301;56.864;60.554;2023-04-27T04:13:42;98043.91;;;25.15;34.87
69187;BME280;56301;56.864;60.554;2023-04-27T04:16:06;98045.78;;;25.14;34.66
69187;BME280;56301;56.864;60.554;2023-04-27T04:18:29;98053.09;;;25.14;34.41
69187;BME280;56301;56.864;60.554;2023-04-27T04:20:51;98041.22;;;25.15;34.60
69187;BME280;56301;56.864;60.554;2023-04-27T04:23:14;98036.22;;;25.18;34.50
69187;BME280;56301;56.864;60.554;2023-04-27T04:25:36;98026.22;;;25.19;34.48
69187;BME280;56301;56.864;60.554;2023-04-27T04:27:59;98029.56;;;25.21;34.21
69187;BME280;56301;56.864;60.554;2023-04-27T04:30:21;98031.44;;;25.20;34.32
69187;BME280;56301;56.864;60.554;2023-04-27T04:32:44;98024.78;;;25.16;34.01
69187;BME280;56301;56.864;60.554;2023-04-27T04:35:06;98014.97;;;25.15;34.04
69187;BME280;56301;56.864;60.554;2023-04-27T04:37:31;98011.66;;;25.13;34.04
69187;BME280;56301;56.864;60.554;2023-04-27T04:39:53;98026.00;;;25.14;34.56
69187;BME280;56301;56.864;60.554;2023-04-27T04:42:16;98024.53;;;25.11;34.26
69187;BME280;56301;56.864;60.554;2023-04-27T04:44:39;98024.53;;;25.11;34.69
69187;BME280;56301;56.864;60.554;2023-04-27T04:47:02;98029.13;;;25.11;34.57
69187;BME280;56301;56.864;60.554;2023-04-27T04:49:24;98015.59;;;25.11;35.00
69187;BME280;56301;56.864;60.554;2023-04-27T04:51:47;98016.22;;;25.13;34.61
69187;BME280;56301;56.864;60.554;2023-04-27T04:54:09;98016.66;;;25.16;34.54
69187;BME280;56301;56.864;60.554;2023-04-27T04:56:32;98007.50;;;25.17;34.65
69187;BME280;56301;56.864;60.554;2023-04-27T04:58:56;98006.22;;;25.20;34.67
69187;BME280;56301;56.864;60.554;2023-04-27T05:01:19;98002.50;;;25.21;34.91
69187;BME280;56301;56.864;60.554;2023-04-27T05:03:44;98010.41;;;25.23;34.27
69187;BME280;56301;56.864;60.554;2023-04-27T05:06:06;97992.50;;;25.28;34.85
69187;BME280;56301;56.864;60.554;2023-04-27T05:08:29;97995.25;;;25.35;34.24
69187;BME280;56301;56.864;60.554;2023-04-27T05:10:51;98008.13;;;25.33;34.40
69187;BME280;56301;56.864;60.554;2023-04-27T05:13:14;98012.09;;;25.37;34.43
69187;BME280;56301;56.864;60.554;2023-04-27T05:15:37;98001.91;;;25.39;34.27
69187;BME280;56301;56.864;60.554;2023-04-27T05:17:59;97998.78;;;25.42;33.78
69187;BME280;56301;56.864;60.554;2023-04-27T05:20:21;98005.03;;;25.36;34.29
69187;BME280;56301;56.864;60.554;2023-04-27T05:22:44;98020.88;;;25.39;33.44
69187;BME280;56301;56.864;60.554;2023-04-27T05:25:06;98004.81;;;25.37;33.40
69187;BME280;56301;56.864;60.554;2023-04-27T05:27:29;98001.25;;;25.37;33.87
69187;BME280;56301;56.864;60.554;2023-04-27T05:29:51;98000.63;;;25.41;33.64
69187;BME280;56301;56.864;60.554;2023-04-27T05:32:14;98002.91;;;25.38;34.37
69187;BME280;56301;56.864;60.554;2023-04-27T05:34:36;98004.19;;;25.35;33.81
69187;BME280;56301;56.864;60.554;2023-04-27T05:36:59;97993.53;;;25.34;34.03
69187;BME280;56301;56.864;60.554;2023-04-27T05:39:21;98007.09;;;25.34;33.75
69187;BME280;56301;56.864;60.554;2023-04-27T05:42:03;98010.44;;;25.36;33.98
69187;BME280;56301;56.864;60.554;2023-04-27T05:44:26;98003.34;;;25.41;33.89
69187;BME280;56301;56.864;60.554;2023-04-27T05:46:49;97998.56;;;25.50;33.32
69187;BME280;56301;56.864;60.554;2023-04-27T05:49:11;97987.31;;;25.47;33.36
69187;BME280;56301;56.864;60.554;2023-04-27T05:51:34;97999.00;;;25.47;33.76
69187;BME280;56301;56.864;60.554;2023-04-27T05:53:56;97996.06;;;25.49;33.06
69187;BME280;56301;56.864;60.554;2023-04-27T05:56:18;97997.94;;;25.48;33.50
69187;BME280;56301;56.864;60.554;2023-04-27T05:58:41;97988.56;;;25.44;33.46
69187;BME280;56301;56.864;60.554;2023-04-27T06:01:03;97994.19;;;25.42;33.27
69187;BME280;56301;56.864;60.554;2023-04-27T06:03:26;97986.72;;;25.64;32.94
69187;BME280;56301;56.864;60.554;2023-04-27T06:05:57;97989.81;;;25.55;33.82
69187;BME280;56301;56.864;60.554;2023-04-27T06:08:19;97983.16;;;25.57;33.50
69187;BME280;56301;56.864;60.554;2023-04-27T06:10:42;97988.34;;;25.52;33.60
69187;BME280;56301;56.864;60.554;2023-04-27T06:13:05;97985.03;;;25.63;33.02
69187;BME280;56301;56.864;60.554;2023-04-27T06:15:27;97988.59;;;25.57;33.45
69187;BME280;56301;56.864;60.554;2023-04-27T06:17:49;97980.47;;;25.57;33.45
69187;BME280;56301;56.864;60.554;2023-04-27T06:20:12;97967.75;;;25.71;33.29
69187;BME280;56301;56.864;60.554;2023-04-27T06:22:35;97972.53;;;25.76;32.54
69187;BME280;56301;56.864;60.554;2023-04-27T06:24:57;97971.28;;;25.78;32.41
69187;BME280;56301;56.864;60.554;2023-04-27T06:27:19;97969.59;;;25.77;32.86
69187;BME280;56301;56.864;60.554;2023-04-27T06:29:42;97967.97;;;25.83;33.75
69187;BME280;56301;56.864;60.554;2023-04-27T06:32:04;97974.19;;;25.77;33.23
69187;BME280;56301;56.864;60.554;2023-04-27T06:34:27;97982.13;;;25.85;32.96
69187;BME280;56301;56.864;60.554;2023-04-27T06:36:49;97971.28;;;25.91;32.93
69187;BME280;56301;56.864;60.554;2023-04-27T06:39:11;97955.44;;;25.95;33.34
69187;BME280;56301;56.864;60.554;2023-04-27T06:41:34;97960.84;;;26.02;34.27
69187;BME280;56301;56.864;60.554;2023-04-27T06:43:56;97957.50;;;26.00;33.85
69187;BME280;56301;56.864;60.554;2023-04-27T06:46:19;97946.66;;;26.06;33.78
69187;BME280;56301;56.864;60.554;2023-04-27T06:48:42;97951.06;;;26.07;33.45
69187;BME280;56301;56.864;60.554;2023-04-27T06:51:04;97946.44;;;26.14;33.16
69187;BME280;56301;56.864;60.554;2023-04-27T06:53:27;97950.41;;;26.19;33.73
69187;BME280;56301;56.864;60.554;2023-04-27T06:55:49;97952.88;;;26.27;33.04
69187;BME280;56301;56.864;60.554;2023-04-27T06:58:12;97939.47;;;26.32;33.09
69187;BME280;56301;56.864;60.554;2023-04-27T07:00:34;97942.41;;;26.37;32.82
69187;BME280;56301;56.864;60.554;2023-04-27T07:02:57;97943.63;;;26.41;32.97
69187;BME280;56301;56.864;60.554;2023-04-27T07:05:19;97928.59;;;26.45;33.17
69187;BME280;56301;56.864;60.554;2023-04-27T07:07:42;97932.16;;;26.52;33.39
69187;BME280;56301;56.864;60.554;2023-04-27T07:10:04;97933.59;;;26.55;33.17
69187;BME280;56301;56.864;60.554;2023-04-27T07:12:27;97938.97;;;26.61;32.40
69187;BME280;56301;56.864;60.554;2023-04-27T07:14:49;97923.16;;;26.58;33.39
69187;BME280;56301;56.864;60.554;2023-04-27T07:17:12;97929.25;;;26.47;34.05
69187;BME280;56301;56.864;60.554;2023-04-27T07:19:35;97941.97;;;26.40;33.78
69187;BME280;56301;56.864;60.554;2023-04-27T07:21:57;97943.22;;;26.44;33.23
69187;BME280;56301;56.864;60.554;2023-04-27T07:24:20;97936.09;;;26.56;32.52
69187;BME280;56301;56.864;60.554;2023-04-27T07:26:43;97935.22;;;26.62;32.80
69187;BME280;56301;56.864;60.554;2023-04-27T07:29:05;97933.13;;;26.64;33.02
69187;BME280;56301;56.864;60.554;2023-04-27T07:31:28;97922.66;;;26.68;33.22
69187;BME280;56301;56.864;60.554;2023-04-27T07:33:50;97931.84;;;26.74;33.63
69187;BME280;56301;56.864;60.554;2023-04-27T07:36:13;97926.81;;;26.77;32.75
69187;BME280;56301;56.864;60.554;2023-04-27T07:38:35;97927.63;;;26.78;32.82
69187;BME280;56301;56.864;60.554;2023-04-27T07:40:59;97921.97;;;26.79;32.59
69187;BME280;56301;56.864;60.554;2023-04-27T07:43:22;97919.25;;;26.79;32.09
69187;BME280;56301;56.864;60.554;2023-04-27T07:45:44;97913.41;;;26.82;32.80
69187;BME280;56301;56.864;60.554;2023-04-27T07:48:07;97917.16;;;26.81;33.22
69187;BME280;56301;56.864;60.554;2023-04-27T07:50:29;97913.44;;;26.76;33.21
69187;BME280;56301;56.864;60.554;2023-04-27T07:52:52;97915.31;;;26.75;33.44
69187;BME280;56301;56.864;60.554;2023-04-27T07:55:15;97903.84;;;26.80;33.09
69187;BME280;56301;56.864;60.554;2023-04-27T07:57:38;97905.75;;;26.73;33.45
69187;BME280;56301;56.864;60.554;2023-04-27T08:00:00;97905.28;;;26.76;33.25
69187;BME280;56301;56.864;60.554;2023-04-27T08:02:23;97907.56;;;26.79;33.27
69187;BME280;56301;56.864;60.554;2023-04-27T08:04:45;97902.38;;;26.77;33.10
69187;BME280;56301;56.864;60.554;2023-04-27T08:07:08;97892.78;;;26.75;32.79
69187;BME280;56301;56.864;60.554;2023-04-27T08:09:30;97894.00;;;26.79;33.14
69187;BME280;56301;56.864;60.554;2023-04-27T08:11:53;97895.72;;;26.73;33.51
69187;BME280;56301;56.864;60.554;2023-04-27T08:14:15;97894.28;;;26.71;33.54
69187;BME280;56301;56.864;60.554;2023-04-27T08:16:39;97883.38;;;26.77;33.27
69187;BME280;56301;56.864;60.554;2023-04-27T08:19:02;97885.47;;;26.75;32.65
69187;BME280;56301;56.864;60.554;2023-04-27T08:21:24;97879.66;;;26.72;33.66
69187;BME280;56301;56.864;60.554;2023-04-27T08:23:46;97884.03;;;26.73;33.80
69187;BME280;56301;56.864;60.554;2023-04-27T08:26:12;97882.31;;;26.78;33.51
69187;BME280;56301;56.864;60.554;2023-04-27T08:28:35;97888.78;;;26.84;33.48
69187;BME280;56301;56.864;60.554;2023-04-27T08:30:58;97872.09;;;26.80;33.24
69187;BME280;56301;56.864;60.554;2023-04-27T08:33:20;97890.03;;;26.81;32.94
69187;BME280;56301;56.864;60.554;2023-04-27T08:35:43;97883.34;;;26.84;33.98
69187;BME280;56301;56.864;60.554;2023-04-27T08:38:06;97874.13;;;26.85;32.59
69187;BME280;56301;56.864;60.554;2023-04-27T08:40:28;97872.25;;;26.85;32.82
69187;BME280;56301;56.864;60.554;2023-04-27T08:42:58;97871.81;;;26.88;33.32
69187;BME280;56301;56.864;60.554;2023-04-27T08:45:25;97864.91;;;26.93;32.29
69187;BME280;56301;56.864;60.554;2023-04-27T08:47:48;97859.91;;;26.89;32.66
69187;BME280;56301;56.864;60.554;2023-04-27T08:50:10;97853.66;;;26.89;32.61
69187;BME280;56301;56.864;60.554;2023-04-27T08:52:33;97861.16;;;26.87;32.42
69187;BME280;56301;56.864;60.554;2023-04-27T08:54:55;97866.28;;;26.77;32.53
69187;BME280;56301;56.864;60.554;2023-04-27T08:57:18;97861.63;;;26.84;32.58
69187;BME280;56301;56.864;60.554;2023-04-27T08:59:40;97863.88;;;26.87;32.69
69187;BME280;56301;56.864;60.554;2023-04-27T09:02:03;97856.00;;;26.79;32.64
69187;BME280;56301;56.864;60.554;2023-04-27T09:04:35;97858.06;;;26.83;32.69
69187;BME280;56301;56.864;60.554;2023-04-27T09:06:57;97858.13;;;26.77;32.56
69187;BME280;56301;56.864;60.554;2023-04-27T09:09:30;97856.13;;;26.66;32.48
69187;BME280;56301;56.864;60.554;2023-04-27T09:11:53;97856.97;;;26.59;32.36
69187;BME280;56301;56.864;60.554;2023-04-27T09:14:19;97856.78;;;26.54;32.83
69187;BME280;56301;56.864;60.554;2023-04-27T09:16:42;97854.97;;;26.48;32.02
69187;BME280;56301;56.864;60.554;2023-04-27T09:19:05;97854.53;;;26.45;33.75
69187;BME280;56301;56.864;60.554;2023-04-27T09:21:28;97850.97;;;26.44;34.01
69187;BME280;56301;56.864;60.554;2023-04-27T09:23:51;97848.88;;;26.53;33.61
69187;BME280;56301;56.864;60.554;2023-04-27T09:26:18;97855.91;;;26.60;33.37
69187;BME280;56301;56.864;60.554;2023-04-27T09:28:46;97841.91;;;26.63;33.12
69187;BME280;56301;56.864;60.554;2023-04-27T09:31:08;97840.25;;;26.62;33.22
69187;BME280;56301;56.864;60.554;2023-04-27T09:33:31;97848.63;;;26.54;33.65
69187;BME280;56301;56.864;60.554;2023-04-27T09:35:55;97836.34;;;26.58;33.45
69187;BME280;56301;56.864;60.554;2023-04-27T09:38:18;97834.63;;;26.57;34.67
69187;BME280;56301;56.864;60.554;2023-04-27T09:40:40;97840.47;;;26.61;34.20
69187;BME280;56301;56.864;60.554;2023-04-27T09:43:03;97846.28;;;26.64;33.91
69187;BME280;56301;56.864;60.554;2023-04-27T09:45:25;97845.06;;;26.60;33.92
69187;BME280;56301;56.864;60.554;2023-04-27T09:47:48;97844.25;;;26.60;33.93
69187;BME280;56301;56.864;60.554;2023-04-27T09:50:11;97846.28;;;26.64;33.52
69187;BME280;56301;56.864;60.554;2023-04-27T09:52:34;97840.84;;;26.64;33.84
69187;BME280;56301;56.864;60.554;2023-04-27T09:54:56;97844.66;;;26.57;33.87
69187;BME280;56301;56.864;60.554;2023-04-27T09:57:29;97841.28;;;26.61;33.86
69187;BME280;56301;56.864;60.554;2023-04-27T10:02:22;97845.53;;;26.51;33.27
69187;BME280;56301;56.864;60.554;2023-04-27T10:07:19;97831.16;;;26.44;33.38
69187;BME280;56301;56.864;60.554;2023-04-27T10:09:43;97840.97;;;26.45;34.00
69187;BME280;56301;56.864;60.554;2023-04-27T10:14:35;97841.75;;;26.58;33.74
69187;BME280;56301;56.864;60.554;2023-04-27T10:16:57;97828.34;;;26.63;33.03
69187;BME280;56301;56.864;60.554;2023-04-27T10:19:20;97816.94;;;26.55;33.61
69187;BME280;56301;56.864;60.554;2023-04-27T10:21:50;97817.19;;;26.47;33.54
69187;BME280;56301;56.864;60.554;2023-04-27T10:24:13;97819.88;;;26.47;34.05
69187;BME280;56301;56.864;60.554;2023-04-27T10:26:35;97821.34;;;26.49;34.29
69187;BME280;56301;56.864;60.554;2023-04-27T10:29:07;97820.91;;;26.52;33.39
69187;BME280;56301;56.864;60.554;2023-04-27T10:31:30;97831.94;;;26.57;34.18
69187;BME280;56301;56.864;60.554;2023-04-27T10:33:52;97824.22;;;26.54;33.92
69187;BME280;56301;56.864;60.554;2023-04-27T10:36:15;97813.44;;;26.48;33.97
69187;BME280;56301;56.864;60.554;2023-04-27T10:38:38;97822.19;;;26.43;33.67
69187;BME280;56301;56.864;60.554;2023-04-27T10:41:02;97820.13;;;26.38;34.26
69187;BME280;56301;56.864;60.554;2023-04-27T10:43:25;97816.34;;;26.39;33.85
69187;BME280;56301;56.864;60.554;2023-04-27T10:45:47;97812.41;;;26.35;33.99
69187;BME280;56301;56.864;60.554;2023-04-27T10:48:13;97820.16;;;26.32;34.63
69187;BME280;56301;56.864;60.554;2023-04-27T10:50:35;97809.72;;;26.29;34.29
69187;BME280;56301;56.864;60.554;2023-04-27T10:52:59;97807.88;;;26.29;34.15
69187;BME280;56301;56.864;60.554;2023-04-27T10:55:22;97803.72;;;26.27;34.32
69187;BME280;56301;56.864;60.554;2023-04-27T10:57:51;97794.13;;;26.24;33.67
69187;BME280;56301;56.864;60.554;2023-04-27T11:00:14;97801.44;;;26.24;33.72
69187;BME280;56301;56.864;60.554;2023-04-27T11:02:37;97803.50;;;26.22;33.65
69187;BME280;56301;56.864;60.554;2023-04-27T11:04:59;97800.22;;;26.20;34.92
69187;BME280;56301;56.864;60.554;2023-04-27T11:07:26;97793.97;;;26.19;34.27
69187;BME280;56301;56.864;60.554;2023-04-27T11:09:48;97794.78;;;26.20;33.78
69187;BME280;56301;56.864;60.554;2023-04-27T11:12:11;97793.13;;;26.19;34.37
69187;BME280;56301;56.864;60.554;2023-04-27T11:14:34;97788.97;;;26.16;33.81
69187;BME280;56301;56.864;60.554;2023-04-27T11:16:57;97784.78;;;26.13;33.87
69187;BME280;56301;56.864;60.554;2023-04-27T11:19:19;97776.91;;;26.12;33.49
69187;BME280;56301;56.864;60.554;2023-04-27T11:21:42;97786.09;;;26.11;34.46
69187;BME280;56301;56.864;60.554;2023-04-27T11:24:05;97780.84;;;26.09;34.83
69187;BME280;56301;56.864;60.554;2023-04-27T11:26:28;97778.16;;;26.09;33.62
69187;BME280;56301;56.864;60.554;2023-04-27T11:31:22;97778.38;;;26.08;34.28
69187;BME280;56301;56.864;60.554;2023-04-27T11:33:47;97778.56;;;26.06;34.08
69187;BME280;56301;56.864;60.554;2023-04-27T11:36:17;97775.25;;;26.04;34.26
69187;BME280;56301;56.864;60.554;2023-04-27T11:38:40;97768.38;;;26.02;34.22
69187;BME280;56301;56.864;60.554;2023-04-27T11:41:06;97769.44;;;26.01;34.10
69187;BME280;56301;56.864;60.554;2023-04-27T11:43:28;97771.94;;;26.02;34.46
69187;BME280;56301;56.864;60.554;2023-04-27T11:45:52;97769.22;;;26.02;35.06
69187;BME280;56301;56.864;60.554;2023-04-27T11:48:14;97761.50;;;25.99;33.67
69187;BME280;56301;56.864;60.554;2023-04-27T11:50:37;97757.97;;;25.99;34.08
69187;BME280;56301;56.864;60.554;2023-04-27T11:52:59;97773.41;;;25.98;34.30
69187;BME280;56301;56.864;60.554;2023-04-27T11:55:22;97764.06;;;25.94;34.41
69187;BME280;56301;56.864;60.554;2023-04-27T11:57:44;97759.84;;;25.40;34.72
69187;BME280;56301;56.864;60.554;2023-04-27T12:00:07;97766.53;;;24.91;35.66
69187;BME280;56301;56.864;60.554;2023-04-27T12:02:35;97769.66;;;24.55;35.75
69187;BME280;56301;56.864;60.554;2023-04-27T12:04:58;97768.19;;;24.45;36.70
69187;BME280;56301;56.864;60.554;2023-04-27T12:07:20;97768.00;;;24.54;37.99
69187;BME280;56301;56.864;60.554;2023-04-27T12:09:43;97772.78;;;24.58;37.23
69187;BME280;56301;56.864;60.554;2023-04-27T12:12:06;97777.75;;;24.41;36.79
69187;BME280;56301;56.864;60.554;2023-04-27T12:14:28;97769.13;;;24.18;36.92
69187;BME280;56301;56.864;60.554;2023-04-27T12:16:51;97764.16;;;24.21;36.68
69187;BME280;56301;56.864;60.554;2023-04-27T12:19:13;97765.34;;;23.99;37.17
69187;BME280;56301;56.864;60.554;2023-04-27T12:21:35;97759.53;;;24.02;36.62
69187;BME280;56301;56.864;60.554;2023-04-27T12:23:58;97764.03;;;23.82;36.98
69187;BME280;56301;56.864;60.554;2023-04-27T12:26:20;97758.06;;;23.86;36.92
69187;BME280;56301;56.864;60.554;2023-04-27T12:29:02;97762.19;;;23.89;36.43
69187;BME280;56301;56.864;60.554;2023-04-27T12:31:44;97763.03;;;23.83;36.98
69187;BME280;56301;56.864;60.554;2023-04-27T12:34:06;97762.31;;;23.67;36.83
69187;BME280;56301;56.864;60.554;2023-04-27T12:36:28;97756.50;;;23.70;35.97
69187;BME280;56301;56.864;60.554;2023-04-27T12:38:52;97757.91;;;23.66;35.94